Nortonville, North Dakota
Current Conditions -  °F | °C
As of 3:56 PM on Friday 28 Nov 2014 (Local Time) from KJMS Reporting Station
Overcast Overcast  
Wind Chill:   Ceiling: 8000
Heat Index: 15°   Visibility: 10mi
Dew Point:   Wind: 12mph
Humidity: 77%   Direction: 130°SE
Pressure: 29.68"   Gusts: NA
Location:  46.4882°N, 98.8135°W
Report Text: KJMS 282156Z AUTO 13010KT 10SM FEW009 OVC080 M09/M13 A2968 RMK AO2 SLP085 T10941128
Loading
Personal Weather Stations






























Interactive Weather Map New forecast layout! Learn more

10-Day Weather Forecast

Advertisements
Track Severe Weather on mobile